createdAt,value
2022-12-15T00:02:17.824Z,100.00
2022-12-15T00:05:03.237Z,100.00
2022-12-15T00:07:48.827Z,100.00
2022-12-15T00:10:34.331Z,100.00
2022-12-15T00:13:19.808Z,100.00
2022-12-15T00:16:06.568Z,100.00
2022-12-15T00:18:52.418Z,100.00
2022-12-15T00:21:37.509Z,100.00
2022-12-15T00:24:23.096Z,100.00
2022-12-15T00:27:08.757Z,100.00
2022-12-15T00:29:54.321Z,100.00
2022-12-15T00:32:40.862Z,100.00
2022-12-15T00:35:27.495Z,100.00
2022-12-15T00:38:13.010Z,100.00
2022-12-15T00:40:39.912Z,100.00
2022-12-15T00:43:12.163Z,100.00
2022-12-15T00:45:57.845Z,100.00
2022-12-15T00:48:24.812Z,100.00
2022-12-15T00:50:54.511Z,100.00
2022-12-15T00:53:41.634Z,100.00
2022-12-15T00:56:28.313Z,100.00
2022-12-15T00:59:13.992Z,100.00
2022-12-15T01:01:59.577Z,100.00
2022-12-15T01:04:45.493Z,100.00
2022-12-15T01:07:31.042Z,100.00
2022-12-15T01:10:16.545Z,100.00
2022-12-15T01:13:02.223Z,100.00
2022-12-15T01:15:47.749Z,100.00
2022-12-15T01:18:33.253Z,100.00
2022-12-15T01:21:05.930Z,100.00
2022-12-15T01:23:33.733Z,100.00
2022-12-15T01:26:01.238Z,100.00
2022-12-15T01:28:28.155Z,100.00
2022-12-15T01:30:55.297Z,100.00
2022-12-15T01:33:23.040Z,100.00
2022-12-15T01:36:00.850Z,100.00
2022-12-15T01:38:28.613Z,100.00
2022-12-15T01:41:05.163Z,100.00
2022-12-15T01:43:35.489Z,100.00
2022-12-15T01:46:07.062Z,100.00
2022-12-15T01:48:57.635Z,100.00
2022-12-15T01:51:33.838Z,100.00
2022-12-15T01:54:23.267Z,100.00
2022-12-15T01:56:53.273Z,100.00
2022-12-15T01:59:29.415Z,100.00
2022-12-15T02:01:56.385Z,100.00
2022-12-15T02:04:24.522Z,100.00
2022-12-15T02:06:53.194Z,100.00
2022-12-15T02:09:22.511Z,100.00
2022-12-15T02:12:14.400Z,100.00
2022-12-15T02:15:20.197Z,100.00
2022-12-15T02:18:13.312Z,100.00
2022-12-15T02:20:44.441Z,100.00
2022-12-15T02:23:41.086Z,100.00
2022-12-15T02:26:19.874Z,100.00
2022-12-15T02:29:10.284Z,100.00
2022-12-15T02:31:52.344Z,100.00
2022-12-15T02:34:32.620Z,100.00
2022-12-15T02:37:11.811Z,100.00
2022-12-15T02:39:38.658Z,100.00
2022-12-15T02:42:05.629Z,100.00
2022-12-15T02:44:37.984Z,100.00
2022-12-15T02:47:23.470Z,100.00
2022-12-15T02:50:17.051Z,100.00
2022-12-15T02:52:58.885Z,100.00
2022-12-15T02:56:05.630Z,100.00
2022-12-15T02:58:38.133Z,100.00
2022-12-15T03:01:18.068Z,100.00
2022-12-15T03:03:47.447Z,100.00
2022-12-15T03:06:15.816Z,100.00
2022-12-15T03:08:42.812Z,100.00
2022-12-15T03:11:09.768Z,100.00
2022-12-15T03:13:36.720Z,100.00
2022-12-15T03:16:03.790Z,100.00
2022-12-15T03:18:30.756Z,100.00
2022-12-15T03:20:57.685Z,100.00
2022-12-15T03:23:24.572Z,100.00
2022-12-15T03:25:51.478Z,100.00
2022-12-15T03:28:18.457Z,100.00
2022-12-15T03:30:45.394Z,100.00
2022-12-15T03:33:17.836Z,100.00
2022-12-15T03:35:44.681Z,100.00
2022-12-15T03:38:11.625Z,100.00
2022-12-15T03:40:38.667Z,100.00
2022-12-15T03:43:05.577Z,100.00
2022-12-15T03:45:32.484Z,100.00
2022-12-15T03:47:59.424Z,100.00
2022-12-15T03:50:28.639Z,100.00
2022-12-15T03:53:01.429Z,100.00
2022-12-15T03:55:31.377Z,100.00
2022-12-15T03:57:59.377Z,100.00
2022-12-15T04:00:27.343Z,100.00
2022-12-15T04:02:54.401Z,100.00
2022-12-15T04:05:25.923Z,100.00
2022-12-15T04:07:54.220Z,100.00
2022-12-15T04:10:21.290Z,100.00
2022-12-15T04:12:48.176Z,100.00
2022-12-15T04:15:15.259Z,100.00
2022-12-15T04:17:42.763Z,100.00
2022-12-15T04:20:10.307Z,100.00
2022-12-15T04:22:43.236Z,100.00
2022-12-15T04:25:32.587Z,100.00
2022-12-15T04:28:18.163Z,100.00
2022-12-15T04:31:31.181Z,100.00
2022-12-15T04:34:19.948Z,100.00
2022-12-15T04:37:08.168Z,100.00
2022-12-15T04:39:55.870Z,100.00
2022-12-15T04:42:41.515Z,100.00
2022-12-15T04:45:28.164Z,100.00
2022-12-15T04:48:13.721Z,100.00
2022-12-15T04:50:59.418Z,100.00
2022-12-15T04:53:44.939Z,100.00
2022-12-15T04:56:31.871Z,100.00
2022-12-15T04:59:17.623Z,100.00
2022-12-15T05:02:02.732Z,100.00
2022-12-15T05:04:48.535Z,100.00
2022-12-15T05:07:34.239Z,100.00
2022-12-15T05:10:19.913Z,100.00
2022-12-15T05:13:05.521Z,100.00
2022-12-15T05:15:52.381Z,100.00
2022-12-15T05:18:38.390Z,100.00
2022-12-15T05:21:24.044Z,100.00
2022-12-15T05:24:09.567Z,100.00
2022-12-15T05:26:55.304Z,100.00
2022-12-15T05:29:40.411Z,100.00
2022-12-15T05:32:08.550Z,100.00
2022-12-15T05:34:36.681Z,100.00
2022-12-15T05:37:05.338Z,100.00
2022-12-15T05:39:32.421Z,100.00
2022-12-15T05:41:59.326Z,100.00
2022-12-15T05:44:26.731Z,100.00
2022-12-15T05:46:53.853Z,100.00
2022-12-15T05:49:20.944Z,100.00
2022-12-15T05:51:48.552Z,100.00
2022-12-15T05:54:18.342Z,100.00
2022-12-15T05:56:45.930Z,100.00
2022-12-15T05:59:13.451Z,100.00
2022-12-15T06:01:40.572Z,100.00
2022-12-15T06:04:07.988Z,100.00
2022-12-15T06:06:34.925Z,100.00
2022-12-15T06:09:01.853Z,100.00
2022-12-15T06:11:28.743Z,100.00
2022-12-15T06:13:56.590Z,100.00
2022-12-15T06:16:25.113Z,100.00
2022-12-15T06:19:00.585Z,100.00
2022-12-15T06:21:30.286Z,100.00
2022-12-15T06:23:57.934Z,100.00
2022-12-15T06:26:36.562Z,100.00
2022-12-15T06:29:06.268Z,100.00
2022-12-15T06:31:34.075Z,100.00
2022-12-15T06:34:05.207Z,100.00
2022-12-15T06:36:32.208Z,100.00
2022-12-15T06:39:00.923Z,100.00
2022-12-15T06:41:30.638Z,100.00
2022-12-15T06:43:58.502Z,100.00
2022-12-15T06:46:28.036Z,100.00
2022-12-15T06:48:55.359Z,100.00
2022-12-15T06:51:22.983Z,100.00
2022-12-15T06:53:52.682Z,100.00
2022-12-15T06:56:33.884Z,100.00
2022-12-15T06:59:03.649Z,98.42
2022-12-15T07:01:31.470Z,96.90
2022-12-15T07:04:00.427Z,97.58
2022-12-15T07:06:28.575Z,96.38
2022-12-15T07:08:56.802Z,95.37
2022-12-15T07:11:24.088Z,94.49
2022-12-15T07:13:52.532Z,94.67
2022-12-15T07:16:20.555Z,95.26
2022-12-15T07:18:47.794Z,95.55
2022-12-15T07:21:14.718Z,94.88
2022-12-15T07:23:57.910Z,97.63
2022-12-15T07:26:25.978Z,99.04
2022-12-15T07:28:54.100Z,99.29
2022-12-15T07:31:21.803Z,99.05
2022-12-15T07:33:48.850Z,100.00
2022-12-15T07:36:15.891Z,100.00
2022-12-15T07:38:42.938Z,100.00
2022-12-15T07:41:10.158Z,100.00
2022-12-15T07:43:38.362Z,100.00
2022-12-15T07:46:06.347Z,100.00
2022-12-15T07:48:34.099Z,100.00
2022-12-15T07:51:11.148Z,100.00
2022-12-15T07:53:40.096Z,100.00
2022-12-15T07:56:09.311Z,100.00
2022-12-15T07:58:37.768Z,100.00
2022-12-15T08:01:10.965Z,100.00
2022-12-15T08:03:39.602Z,100.00
2022-12-15T08:06:13.451Z,100.00
2022-12-15T08:08:40.834Z,100.00
2022-12-15T08:11:09.914Z,100.00
2022-12-15T08:16:25.183Z,98.16
2022-12-15T08:18:53.016Z,99.74
2022-12-15T08:21:19.929Z,98.80
2022-12-15T08:23:46.849Z,96.31
2022-12-15T08:26:16.719Z,94.03
2022-12-15T08:28:44.830Z,92.77
2022-12-15T08:31:20.502Z,98.93
2022-12-15T08:33:48.171Z,96.49
2022-12-15T08:36:17.042Z,94.82
2022-12-15T08:38:45.654Z,96.48
2022-12-15T08:41:16.171Z,94.42
2022-12-15T08:43:48.760Z,94.00
2022-12-15T08:46:21.074Z,93.14
2022-12-15T08:48:49.003Z,90.07
2022-12-15T08:51:16.410Z,92.23
2022-12-15T08:53:43.770Z,97.43
2022-12-15T08:56:13.369Z,98.60
2022-12-15T08:58:40.605Z,100.00
2022-12-15T09:01:11.008Z,100.00
2022-12-15T09:03:38.583Z,100.00
2022-12-15T09:06:07.688Z,100.00
2022-12-15T09:08:35.186Z,100.00
2022-12-15T09:11:02.367Z,100.00
2022-12-15T09:13:30.196Z,100.00
2022-12-15T09:16:11.203Z,100.00
2022-12-15T09:18:38.582Z,100.00
2022-12-15T09:21:07.954Z,100.00
2022-12-15T09:23:37.032Z,100.00
2022-12-15T09:26:07.452Z,100.00
2022-12-15T09:28:34.679Z,100.00
2022-12-15T09:31:09.750Z,100.00
2022-12-15T09:33:37.901Z,100.00
2022-12-15T09:36:05.994Z,100.00
2022-12-15T09:38:40.958Z,98.04
2022-12-15T09:41:13.742Z,96.74
2022-12-15T09:43:52.691Z,96.18
2022-12-15T09:46:38.365Z,95.14
2022-12-15T09:49:15.748Z,96.87
2022-12-15T09:51:52.397Z,98.41
2022-12-15T09:54:20.694Z,97.43
2022-12-15T09:56:53.470Z,96.86
2022-12-15T09:59:41.994Z,95.58
2022-12-15T10:02:12.024Z,92.66
2022-12-15T10:04:50.718Z,93.13
2022-12-15T10:07:27.667Z,93.21
2022-12-15T10:09:54.737Z,89.03
2022-12-15T10:12:27.126Z,89.36
2022-12-15T10:14:56.920Z,87.18
2022-12-15T10:17:35.950Z,87.67
2022-12-15T10:20:14.902Z,86.62
2022-12-15T10:22:42.318Z,87.13
2022-12-15T10:25:15.002Z,84.36
2022-12-15T10:28:07.553Z,82.97
2022-12-15T10:30:35.543Z,73.58
2022-12-15T10:33:21.303Z,68.78
2022-12-15T10:35:49.121Z,67.05
2022-12-15T10:38:35.323Z,63.56
2022-12-15T10:41:08.796Z,69.00
2022-12-15T10:43:47.363Z,69.74
2022-12-15T10:46:29.110Z,63.98
2022-12-15T10:49:00.230Z,61.37
2022-12-15T10:51:31.810Z,64.27
2022-12-15T10:54:01.888Z,65.30
2022-12-15T10:56:33.535Z,67.40
2022-12-15T10:59:31.909Z,68.24
2022-12-15T11:02:23.859Z,64.77
2022-12-15T11:05:16.551Z,66.55
2022-12-15T11:08:12.940Z,71.99
2022-12-15T11:11:12.451Z,73.60
2022-12-15T11:13:40.648Z,73.23
2022-12-15T11:16:26.066Z,75.95
2022-12-15T11:19:04.332Z,76.71
2022-12-15T11:21:39.011Z,79.53
2022-12-15T11:24:14.645Z,76.08
2022-12-15T11:26:56.815Z,72.90
2022-12-15T11:29:23.724Z,66.62
2022-12-15T11:31:52.715Z,58.46
2022-12-15T11:34:26.099Z,54.35
2022-12-15T11:37:07.850Z,51.62
2022-12-15T11:39:37.616Z,49.44
2022-12-15T11:42:19.830Z,49.05
2022-12-15T11:44:49.587Z,47.42
2022-12-15T11:47:40.903Z,48.37
2022-12-15T11:50:36.310Z,54.29
2022-12-15T11:53:21.310Z,53.58
2022-12-15T11:56:25.064Z,59.72
2022-12-15T11:59:22.501Z,59.54
2022-12-15T12:02:19.785Z,55.25
2022-12-15T12:05:28.541Z,56.45
2022-12-15T12:08:15.474Z,54.83
2022-12-15T12:10:48.624Z,54.30
2022-12-15T12:13:43.331Z,53.35
2022-12-15T12:16:40.059Z,52.63
2022-12-15T12:19:11.530Z,52.87
2022-12-15T12:21:44.303Z,53.83
2022-12-15T12:24:25.279Z,56.13
2022-12-15T12:26:58.855Z,58.14
2022-12-15T12:29:51.421Z,59.52
2022-12-15T12:32:35.163Z,63.26
2022-12-15T12:38:21.251Z,63.28
2022-12-15T12:41:07.974Z,61.50
2022-12-15T12:43:40.395Z,65.07
2022-12-15T12:46:19.215Z,61.89
2022-12-15T12:48:51.661Z,61.48
2022-12-15T12:51:33.582Z,62.98
2022-12-15T12:54:01.525Z,63.62
2022-12-15T12:56:30.164Z,61.31
2022-12-15T12:58:57.281Z,62.66
2022-12-15T13:01:33.864Z,61.73
2022-12-15T13:04:14.176Z,63.21
2022-12-15T13:06:40.964Z,59.69
2022-12-15T13:09:41.941Z,57.26
2022-12-15T13:12:52.957Z,56.45
2022-12-15T13:15:29.336Z,57.69
2022-12-15T13:18:12.608Z,58.05
2022-12-15T13:20:40.844Z,61.83
2022-12-15T13:23:19.635Z,61.66
2022-12-15T13:26:02.245Z,64.76
2022-12-15T13:28:42.765Z,63.46
2022-12-15T13:31:19.044Z,63.64
2022-12-15T13:33:55.840Z,66.05
2022-12-15T13:36:38.247Z,67.54
2022-12-15T13:39:17.065Z,69.54
2022-12-15T13:42:07.606Z,71.42
2022-12-15T13:44:35.683Z,70.36
2022-12-15T13:47:29.625Z,69.71
2022-12-15T13:50:07.753Z,68.11
2022-12-15T13:55:37.373Z,57.60
2022-12-15T13:58:16.233Z,56.38
2022-12-15T14:01:03.029Z,55.27
2022-12-15T14:03:30.415Z,60.31
2022-12-15T14:06:00.552Z,60.56
2022-12-15T14:08:30.481Z,61.70
2022-12-15T14:11:07.061Z,63.61
2022-12-15T14:13:38.560Z,65.95
2022-12-15T14:16:23.635Z,68.42
2022-12-15T14:19:23.007Z,71.05
2022-12-15T14:21:57.353Z,78.16
2022-12-15T14:24:39.080Z,78.91
2022-12-15T14:27:06.697Z,78.87
2022-12-15T14:29:33.690Z,77.00
2022-12-15T14:32:01.112Z,81.73
2022-12-15T14:34:33.683Z,89.51
2022-12-15T14:37:07.817Z,94.60
2022-12-15T14:39:43.299Z,98.39
2022-12-15T14:42:23.525Z,99.04
2022-12-15T14:44:54.904Z,100.00
2022-12-15T14:47:28.662Z,100.00
2022-12-15T14:49:57.942Z,100.00
2022-12-15T14:52:43.082Z,100.00
2022-12-15T14:55:37.732Z,100.00
2022-12-15T14:58:34.728Z,95.47
2022-12-15T15:01:03.499Z,90.36
2022-12-15T15:03:11.487Z,63.78
2022-12-15T15:03:15.625Z,62.20
2022-12-15T15:03:39.249Z,89.11
2022-12-15T15:06:17.988Z,95.27
2022-12-15T15:08:52.994Z,100.00
2022-12-15T15:11:32.141Z,100.00
2022-12-15T15:14:03.199Z,100.00
2022-12-15T15:16:30.522Z,100.00
2022-12-15T15:19:01.221Z,100.00
2022-12-15T15:21:30.665Z,100.00
2022-12-15T15:24:03.191Z,100.00
2022-12-15T15:26:31.470Z,100.00
2022-12-15T15:28:58.849Z,100.00
2022-12-15T15:31:25.803Z,100.00
2022-12-15T15:33:53.340Z,100.00
2022-12-15T15:36:22.041Z,100.00
2022-12-15T15:38:48.936Z,100.00
2022-12-15T15:41:18.590Z,100.00
2022-12-15T15:43:46.123Z,100.00
2022-12-15T15:46:22.807Z,100.00
2022-12-15T15:48:53.629Z,100.00
2022-12-15T15:51:21.636Z,100.00
2022-12-15T15:53:48.648Z,100.00
2022-12-15T15:56:17.262Z,100.00
2022-12-15T15:58:44.180Z,100.00
2022-12-15T16:01:13.574Z,100.00
2022-12-15T16:03:41.574Z,99.23
2022-12-15T16:06:17.746Z,98.74
2022-12-15T16:08:47.242Z,97.19
2022-12-15T16:11:14.266Z,94.93
2022-12-15T16:13:41.216Z,93.79
2022-12-15T16:16:18.646Z,93.77
2022-12-15T16:18:46.159Z,94.45
2022-12-15T16:21:14.918Z,93.81
2022-12-15T16:23:45.024Z,94.86
2022-12-15T16:26:17.753Z,96.31
2022-12-15T16:28:44.701Z,93.65
2022-12-15T16:31:24.794Z,91.75
2022-12-15T16:33:51.719Z,90.34
2022-12-15T16:36:18.693Z,89.76
2022-12-15T16:38:45.549Z,91.74
2022-12-15T16:41:16.641Z,93.84
2022-12-15T16:43:48.085Z,94.62
2022-12-15T16:46:16.120Z,93.72
2022-12-15T16:48:43.591Z,92.89
2022-12-15T16:51:34.280Z,92.18
2022-12-15T16:54:01.375Z,92.57
2022-12-15T16:56:28.255Z,91.87
2022-12-15T16:59:15.627Z,92.40
2022-12-15T17:01:44.641Z,92.46
2022-12-15T17:04:12.176Z,91.99
2022-12-15T17:06:39.463Z,91.47
2022-12-15T17:09:08.887Z,92.82
2022-12-15T17:11:35.900Z,93.58
2022-12-15T17:14:03.043Z,93.12
2022-12-15T17:16:30.156Z,92.48
2022-12-15T17:18:57.120Z,92.34
2022-12-15T17:21:34.158Z,93.55
2022-12-15T17:24:06.796Z,93.12
2022-12-15T17:26:36.869Z,93.89
2022-12-15T17:29:15.972Z,94.29
2022-12-15T17:31:42.954Z,94.90
2022-12-15T17:34:21.789Z,94.75
2022-12-15T17:36:48.755Z,94.10
2022-12-15T17:39:18.188Z,93.65
2022-12-15T17:42:02.015Z,94.05
2022-12-15T17:44:35.759Z,93.89
2022-12-15T17:47:06.445Z,94.13
2022-12-15T17:49:36.661Z,93.98
2022-12-15T17:52:24.675Z,95.07
2022-12-15T17:54:52.306Z,96.93
2022-12-15T17:57:19.302Z,96.50
2022-12-15T17:59:46.657Z,96.38
2022-12-15T18:02:15.127Z,96.28
2022-12-15T18:04:42.906Z,96.76
2022-12-15T18:07:18.960Z,95.97
2022-12-15T18:09:46.327Z,95.90
2022-12-15T18:12:20.162Z,98.52
2022-12-15T18:14:47.998Z,96.45
2022-12-15T18:17:15.018Z,94.96
2022-12-15T18:19:41.975Z,93.98
2022-12-15T18:22:17.818Z,94.66
2022-12-15T18:24:44.877Z,94.64
2022-12-15T18:27:23.662Z,93.66
2022-12-15T18:29:51.513Z,93.39
2022-12-15T18:32:20.331Z,92.84
2022-12-15T18:34:47.233Z,94.47
2022-12-15T18:37:17.268Z,95.31
2022-12-15T18:39:45.123Z,95.85
2022-12-15T18:42:17.985Z,96.30
2022-12-15T18:44:49.121Z,98.17
2022-12-15T18:47:21.913Z,98.59
2022-12-15T18:49:49.471Z,97.92
2022-12-15T18:52:20.093Z,95.83
2022-12-15T18:54:51.590Z,96.80
2022-12-15T18:57:26.751Z,95.37
2022-12-15T18:59:58.165Z,100.00
2022-12-15T19:02:25.384Z,100.00
2022-12-15T19:04:52.444Z,100.00
2022-12-15T19:07:19.453Z,100.00
2022-12-15T19:09:46.499Z,100.00
2022-12-15T19:12:18.441Z,100.00
2022-12-15T19:14:47.737Z,100.00
2022-12-15T19:17:43.249Z,100.00
2022-12-15T19:20:38.937Z,100.00
2022-12-15T19:23:07.155Z,100.00
2022-12-15T19:25:35.336Z,100.00
2022-12-15T19:28:02.307Z,100.00
2022-12-15T19:30:35.893Z,100.00
2022-12-15T19:33:07.818Z,100.00
2022-12-15T19:35:36.053Z,100.00
2022-12-15T19:38:04.369Z,100.00
2022-12-15T19:40:33.338Z,100.00
2022-12-15T19:43:02.280Z,100.00
2022-12-15T19:45:31.808Z,100.00
2022-12-15T19:47:59.607Z,100.00
2022-12-15T19:50:37.085Z,100.00
2022-12-15T19:53:26.390Z,98.88
2022-12-15T19:55:59.420Z,100.00
2022-12-15T19:58:32.315Z,98.98
2022-12-15T20:01:06.600Z,100.00
2022-12-15T20:03:34.445Z,100.00
2022-12-15T20:06:03.402Z,98.01
2022-12-15T20:08:35.874Z,96.82
2022-12-15T20:11:03.738Z,95.52
2022-12-15T20:13:30.985Z,94.01
2022-12-15T20:15:58.269Z,95.94
2022-12-15T20:18:25.264Z,97.65
2022-12-15T20:20:52.223Z,97.40
2022-12-15T20:23:23.782Z,98.81
2022-12-15T20:25:50.964Z,99.63
2022-12-15T20:28:22.561Z,99.47
2022-12-15T20:30:50.085Z,98.48
2022-12-15T20:33:17.291Z,98.36
2022-12-15T20:35:46.807Z,99.10
2022-12-15T20:38:23.502Z,99.20
2022-12-15T20:40:51.328Z,97.74
2022-12-15T20:43:20.547Z,97.09
2022-12-15T20:45:57.751Z,96.99
2022-12-15T20:48:25.657Z,96.66
2022-12-15T20:50:53.454Z,95.08
2022-12-15T20:53:23.936Z,95.10
2022-12-15T20:55:52.978Z,95.07
2022-12-15T20:58:21.057Z,96.50
2022-12-15T21:00:49.913Z,99.35
2022-12-15T21:03:32.639Z,100.00
2022-12-15T21:06:00.602Z,100.00
2022-12-15T21:08:31.850Z,100.00
2022-12-15T21:11:27.699Z,99.81
2022-12-15T21:13:56.992Z,98.98
2022-12-15T21:16:28.991Z,98.14
2022-12-15T21:19:20.202Z,96.98
2022-12-15T21:21:49.352Z,100.00
2022-12-15T21:24:22.980Z,99.51
2022-12-15T21:26:50.554Z,100.00
2022-12-15T21:29:26.017Z,100.00
2022-12-15T21:31:52.822Z,100.00
2022-12-15T21:34:19.776Z,100.00
2022-12-15T21:36:51.971Z,100.00
2022-12-15T21:39:33.103Z,100.00
2022-12-15T21:42:04.288Z,100.00
2022-12-15T21:44:31.170Z,100.00
2022-12-15T21:46:58.379Z,99.49
2022-12-15T21:49:25.670Z,99.15
2022-12-15T21:52:02.198Z,97.32
2022-12-15T21:54:34.994Z,97.20
2022-12-15T21:57:05.551Z,97.71
2022-12-15T21:59:33.041Z,98.49
2022-12-15T22:02:01.420Z,98.69
2022-12-15T22:04:35.417Z,97.92
2022-12-15T22:07:02.735Z,97.08
2022-12-15T22:09:29.602Z,97.79
2022-12-15T22:11:57.028Z,98.34
2022-12-15T22:14:33.910Z,98.58
2022-12-15T22:17:02.432Z,98.76
2022-12-15T22:19:29.337Z,98.83
2022-12-15T22:21:56.259Z,97.38
2022-12-15T22:24:23.376Z,98.63
2022-12-15T22:26:50.451Z,98.33
2022-12-15T22:29:24.246Z,98.01
2022-12-15T22:31:51.955Z,98.76
2022-12-15T22:34:24.093Z,97.41
2022-12-15T22:36:51.828Z,97.69
2022-12-15T22:39:19.762Z,100.00
2022-12-15T22:41:50.397Z,99.73
2022-12-15T22:44:26.236Z,97.85
2022-12-15T22:46:55.921Z,99.04
2022-12-15T22:49:30.504Z,100.00
2022-12-15T22:51:58.203Z,99.07
2022-12-15T22:54:27.500Z,98.53
2022-12-15T22:56:59.532Z,99.00
2022-12-15T22:59:51.523Z,97.66
2022-12-15T23:02:18.476Z,97.69
2022-12-15T23:04:45.814Z,97.33
2022-12-15T23:07:12.868Z,98.37
2022-12-15T23:09:39.743Z,98.19
2022-12-15T23:12:06.776Z,97.17
2022-12-15T23:14:52.108Z,97.14
2022-12-15T23:17:19.015Z,95.15
2022-12-15T23:19:47.145Z,93.88
2022-12-15T23:22:14.316Z,94.28
2022-12-15T23:24:41.239Z,94.95
2022-12-15T23:27:12.037Z,94.04
2022-12-15T23:29:39.129Z,93.81
2022-12-15T23:32:06.397Z,93.04
2022-12-15T23:34:33.308Z,89.92
2022-12-15T23:37:00.981Z,97.07
2022-12-15T23:39:28.293Z,100.00
2022-12-15T23:41:55.181Z,100.00
2022-12-15T23:44:22.035Z,100.00
2022-12-15T23:46:48.978Z,100.00
2022-12-15T23:49:15.965Z,100.00
2022-12-15T23:51:42.934Z,98.14
2022-12-15T23:54:10.198Z,97.11
2022-12-15T23:56:39.644Z,98.81
2022-12-15T23:59:06.752Z,98.57
